Le Mars, IA

10:04 AM CDT on March 23, 2017 (GMT -0500)
Le Mars Municipal

Weather History for KLRJ - February, 2012

Change the Weather History Date:

Friday, February 10, 2012

  Actual Average Record
Temperature  
Mean Temperature 16 °F -  
Max Temperature 26 °F 30 °F 66 °F (1999)
Min Temperature 5 °F 12 °F -16 °F (2014)
Degree Days  
Heating Degree Days 50    
Moisture  
Dew Point -3 °F    
Average Humidity 55    
Maximum Humidity 74    
Minimum Humidity 41    
Precipitation  
Precipitation 0.00 in - - ()
Sea Level Pressure  
Sea Level Pressure 30.31 in    
Wind  
Wind Speed 16 mph (North)    
Max Wind Speed 24 mph    
Max Gust Speed 31 mph    
Visibility 10 miles    
Events      
Averages and records for this station are not official NWS values.
T = Trace of Precipitation, MM = Missing Value Source: NWS Daily Summary

Daily Weather History Graph

Daily Weather History Graph

Search for Another Location

Airport or City:

Trip Planner

Search our weather history database for the weather conditions in past years. The results will help you decide how hot, cold, wet, or windy it might be!

Date:

Astronomy

Feb. 10, 2012 Rise Set
Actual Time 7:29 AM CST 5:49 PM CST
Civil Twilight 6:59 AM CST 6:18 PM CST
Nautical Twilight 6:26 AM CST 6:52 PM CST
Astronomical Twilight 5:53 AM CST 7:24 PM CST
Moon 9:35 PM CST (2/10) 8:32 AM CST (2/10)
Length of Visible Light 11h 18m
Length of Day
10h 20m
Waning Gibbous, 90% of the Moon is Illuminated
Feb 10
Waning Gibbous
Feb 14
Last Quarter
Feb 21
New
Feb 29
First Quarter
Mar 8
Full

Hourly Weather History & Observations

Time (CST) Temp. Windchill Dew Point Humidity Pressure Visibility Wind Dir Wind Speed Gust Speed Precip Events Conditions
12:15 AM 26.6 °F 15.7 °F 17.6 °F 69% 30.09 in 10.0 mi North 12.7 mph 24.2 mph N/A   Overcast
12:35 AM 24.8 °F 11.5 °F 17.6 °F 74% 30.10 in 10.0 mi North 17.3 mph 23.0 mph N/A   Overcast
12:55 AM 21.2 °F 6.4 °F 12.2 °F 68% 30.11 in 10.0 mi North 18.4 mph 26.5 mph N/A   Overcast
1:15 AM 21.2 °F 6.8 °F 8.6 °F 58% 30.13 in 10.0 mi North 17.3 mph 24.2 mph N/A   Overcast
1:35 AM 17.6 °F 0.5 °F 3.2 °F 53% 30.13 in 10.0 mi North 21.9 mph 31.1 mph N/A   Overcast
1:55 AM 15.8 °F 0.9 °F 3.2 °F 58% 30.14 in 10.0 mi North 15.0 mph 23.0 mph N/A   Scattered Clouds
2:15 AM 15.8 °F -1.1 °F 3.2 °F 58% 30.14 in 10.0 mi North 19.6 mph 26.5 mph N/A   Clear
2:35 AM 14.0 °F -0.2 °F 3.2 °F 62% 30.15 in 10.0 mi North 12.7 mph 19.6 mph N/A   Clear
2:55 AM 12.2 °F -4.3 °F 1.4 °F 62% 30.15 in 10.0 mi North 16.1 mph 23.0 mph N/A   Clear
3:15 AM 12.2 °F -1.8 °F 1.4 °F 62% 30.16 in 10.0 mi North 11.5 mph 21.9 mph N/A   Clear
3:35 AM 12.2 °F -1.0 °F 1.4 °F 62% 30.17 in 10.0 mi North 10.4 mph 16.1 mph N/A   Clear
3:55 AM 10.4 °F -4.8 °F 1.4 °F 67% 30.17 in 10.0 mi North 12.7 mph - N/A   Clear
4:15 AM 10.4 °F -7.7 °F 1.4 °F 67% 30.18 in 10.0 mi North 18.4 mph 24.2 mph N/A   Clear
4:35 AM 10.4 °F -5.4 °F 1.4 °F 67% 30.19 in 10.0 mi North 13.8 mph - N/A   Clear
4:55 AM 10.4 °F -5.4 °F 1.4 °F 67% 30.20 in 10.0 mi North 13.8 mph 17.3 mph N/A   Clear
5:15 AM 10.4 °F -6.0 °F -0.4 °F 62% 30.21 in 10.0 mi North 15.0 mph 19.6 mph N/A   Clear
5:35 AM 8.6 °F -8.9 °F -2.2 °F 62% 30.22 in 10.0 mi North 16.1 mph 23.0 mph N/A   Clear
5:55 AM 8.6 °F -6.3 °F -2.2 °F 62% 30.23 in 10.0 mi North 11.5 mph 20.7 mph N/A   Clear
6:15 AM 8.6 °F -7.0 °F -2.2 °F 62% 30.24 in 10.0 mi North 12.7 mph 19.6 mph N/A   Clear
6:35 AM 8.6 °F -7.7 °F -2.2 °F 62% 30.24 in 10.0 mi North 13.8 mph 18.4 mph N/A   Clear
6:55 AM 8.6 °F -8.3 °F -2.2 °F 62% 30.25 in 10.0 mi North 15.0 mph 23.0 mph N/A   Clear
7:15 AM 8.6 °F -10.0 °F -2.2 °F 62% 30.26 in 10.0 mi North 18.4 mph 23.0 mph N/A   Clear
7:35 AM 8.6 °F -11.0 °F -2.2 °F 62% 30.27 in 10.0 mi North 20.7 mph 28.8 mph N/A   Clear
7:55 AM 8.6 °F -11.4 °F -2.2 °F 62% 30.27 in 10.0 mi North 21.9 mph 26.5 mph N/A   Clear
8:15 AM 6.8 °F -13.8 °F -4.0 °F 61% 30.29 in 10.0 mi North 21.9 mph 29.9 mph N/A   Clear
8:35 AM 8.6 °F -10.5 °F -2.2 °F 62% 30.30 in 10.0 mi North 19.6 mph 25.3 mph N/A   Clear
8:55 AM 8.6 °F -8.9 °F -2.2 °F 62% 30.31 in 10.0 mi North 16.1 mph 25.3 mph N/A   Clear
9:15 AM 6.8 °F -12.4 °F -4.0 °F 61% 30.32 in 10.0 mi North 18.4 mph 24.2 mph N/A   Clear
9:35 AM 8.6 °F -10.5 °F -4.0 °F 57% 30.32 in 10.0 mi North 19.6 mph 26.5 mph N/A   Clear
9:55 AM 8.6 °F -10.0 °F -4.0 °F 57% 30.33 in 10.0 mi North 18.4 mph 24.2 mph N/A   Clear
10:15 AM 8.6 °F -11.0 °F -4.0 °F 57% 30.32 in 10.0 mi North 20.7 mph 27.6 mph N/A   Clear
10:35 AM 8.6 °F -9.5 °F -5.8 °F 52% 30.33 in 10.0 mi North 17.3 mph 26.5 mph N/A   Clear
10:55 AM 8.6 °F -9.5 °F -5.8 °F 52% 30.34 in 10.0 mi North 17.3 mph 27.6 mph N/A   Clear
11:15 AM 10.4 °F -7.2 °F -4.0 °F 52% 30.35 in 10.0 mi North 17.3 mph 25.3 mph N/A   Clear
11:35 AM 10.4 °F -6.0 °F -4.0 °F 52% 30.36 in 10.0 mi North 15.0 mph 29.9 mph N/A   Clear
11:55 AM 10.4 °F -7.2 °F -4.0 °F 52% 30.36 in 10.0 mi North 17.3 mph 24.2 mph N/A   Clear
12:15 PM 10.4 °F -7.7 °F -4.0 °F 52% 30.36 in 10.0 mi North 18.4 mph 26.5 mph N/A   Clear
12:35 PM 10.4 °F -7.2 °F -5.8 °F 48% 30.36 in 10.0 mi North 17.3 mph 26.5 mph N/A   Clear
12:55 PM 12.2 °F -5.8 °F -5.8 °F 45% 30.36 in 10.0 mi North 19.6 mph 24.2 mph N/A   Clear
1:15 PM 12.2 °F -5.8 °F -5.8 °F 45% 30.36 in 10.0 mi North 19.6 mph 26.5 mph N/A   Clear
1:35 PM 12.2 °F -4.8 °F -5.8 °F 45% 30.36 in 10.0 mi North 17.3 mph 26.5 mph N/A   Clear
1:55 PM 14.0 °F -2.5 °F -5.8 °F 41% 30.36 in 10.0 mi North 17.3 mph 27.6 mph N/A   Clear
2:15 PM 14.0 °F -3.4 °F -5.8 °F 41% 30.37 in 10.0 mi North 19.6 mph 27.6 mph N/A   Clear
2:35 PM 14.0 °F -2.5 °F -5.8 °F 41% 30.38 in 10.0 mi North 17.3 mph 29.9 mph N/A   Clear
2:55 PM 14.0 °F -2.0 °F -5.8 °F 41% 30.39 in 10.0 mi North 16.1 mph 27.6 mph N/A   Clear
3:15 PM 14.0 °F -4.3 °F -5.8 °F 41% 30.40 in 10.0 mi NNW 21.9 mph 26.5 mph N/A   Clear
3:35 PM 14.0 °F -2.5 °F -5.8 °F 41% 30.41 in 10.0 mi North 17.3 mph 24.2 mph N/A   Scattered Clouds
3:55 PM 12.2 °F -5.3 °F -7.6 °F 41% 30.42 in 10.0 mi North 18.4 mph 24.2 mph N/A   Scattered Clouds
4:15 PM 12.2 °F -7.5 °F -7.6 °F 41% 30.42 in 10.0 mi North 24.2 mph 27.6 mph N/A   Scattered Clouds
4:35 PM 12.2 °F -5.3 °F -7.6 °F 41% 30.43 in 10.0 mi North 18.4 mph 26.5 mph N/A   Clear
4:55 PM 10.4 °F -5.4 °F -7.6 °F 44% 30.44 in 10.0 mi North 13.8 mph 28.8 mph N/A   Clear
5:15 PM 10.4 °F -7.7 °F -7.6 °F 44% 30.45 in 10.0 mi North 18.4 mph 25.3 mph N/A   Clear
5:35 PM 8.6 °F -9.5 °F -7.6 °F 48% 30.45 in 10.0 mi North 17.3 mph 23.0 mph N/A   Clear
5:55 PM 8.6 °F -7.7 °F -7.6 °F 48% 30.46 in 10.0 mi North 13.8 mph 23.0 mph N/A   Clear
6:15 PM 8.6 °F -8.3 °F -7.6 °F 48% 30.46 in 10.0 mi North 15.0 mph 20.7 mph N/A   Clear
6:35 PM 8.6 °F -8.9 °F -7.6 °F 48% 30.47 in 10.0 mi North 16.1 mph 20.7 mph N/A   Clear
6:55 PM 6.8 °F -9.3 °F -7.6 °F 52% 30.49 in 10.0 mi North 12.7 mph 21.9 mph N/A   Clear
7:15 PM 6.8 °F -9.3 °F -7.6 °F 52% 30.50 in 10.0 mi North 12.7 mph 17.3 mph N/A   Clear
7:35 PM 6.8 °F -9.3 °F -7.6 °F 52% 30.51 in 10.0 mi North 12.7 mph 18.4 mph N/A   Clear
7:55 PM 5.0 °F -10.8 °F -7.6 °F 56% 30.52 in 10.0 mi North 11.5 mph - N/A   Clear
8:15 PM 5.0 °F -10.8 °F -7.6 °F 56% 30.53 in 10.0 mi North 11.5 mph 18.4 mph N/A   Clear
8:35 PM 5.0 °F -10.8 °F -7.6 °F 56% 30.54 in 10.0 mi North 11.5 mph - N/A   Clear
8:55 PM 3.2 °F -12.2 °F -7.6 °F 61% 30.55 in 10.0 mi North 10.4 mph - N/A   Clear
9:15 PM 3.2 °F -12.2 °F -7.6 °F 61% 30.55 in 10.0 mi North 10.4 mph - N/A   Clear
9:35 PM 3.2 °F -10.3 °F -7.6 °F 61% 30.57 in 10.0 mi North 8.1 mph - N/A   Clear
9:55 PM 3.2 °F -12.2 °F -7.6 °F 61% 30.57 in 10.0 mi North 10.4 mph - N/A   Clear
10:15 PM 3.2 °F -12.2 °F -7.6 °F 61% 30.58 in 10.0 mi North 10.4 mph 17.3 mph N/A   Clear
10:35 PM 3.2 °F -10.3 °F -7.6 °F 61% 30.58 in 10.0 mi North 8.1 mph - N/A   Clear
10:55 PM 1.4 °F -13.5 °F -7.6 °F 66% 30.59 in 10.0 mi North 9.2 mph 16.1 mph N/A   Clear
11:15 PM 1.4 °F -12.5 °F -7.6 °F 66% 30.59 in 10.0 mi North 8.1 mph - N/A   Clear
11:35 PM 1.4 °F -11.3 °F -7.6 °F 66% 30.60 in 10.0 mi North 6.9 mph - N/A   Clear
11:55 PM 1.4 °F -11.3 °F -7.6 °F 66% 30.60 in 10.0 mi North 6.9 mph - N/A   Clear